Time;durP1;ratioP1;P1;durP2;ratioP2;P2;SDS_P1;SDS_P2;PMS_P1;PMS_P2;Temp;Humidity;BMP_temperature;BMP_pressure;BME280_temperature;BME280_humidity;BME280_pressure;Samples;Min_cycle;Max_cycle;Signal;HPM_P1;HPM_P2
2022/04/02 00:00:39;;;;;;;5.80;4.63;;;;;;;;;;5033088;28;20033;-73
2022/04/02 00:03:05;;;;;;;4.88;4.38;;;;;;;;;;5032976;28;20112;-73
2022/04/02 00:05:30;;;;;;;5.10;4.60;;;;;;;;;;5033052;28;20025;-72
2022/04/02 00:07:55;;;;;;;4.60;4.10;;;;;;;;;;5032888;28;20353;-72
2022/04/02 00:10:21;;;;;;;4.80;4.30;;;;;;;;;;5032719;28;20036;-73
2022/04/02 00:12:46;;;;;;;4.90;4.40;;;;;;;;;;5032815;28;20094;-74
2022/04/02 00:15:11;;;;;;;5.00;4.45;;;;;;;;;;5032634;28;20053;-74
2022/04/02 00:17:37;;;;;;;5.40;4.30;;;;;;;;;;5032602;28;20440;-73
2022/04/02 00:20:04;;;;;;;5.57;4.43;;;;;;;;;;5032364;28;20450;-74
2022/04/02 00:22:30;;;;;;;5.00;4.28;;;;;;;;;;5032820;28;20490;-75
2022/04/02 00:24:55;;;;;;;4.78;4.32;;;;;;;;;;5033080;28;20021;-73
2022/04/02 00:27:21;;;;;;;4.72;4.05;;;;;;;;;;5032538;28;20026;-74
2022/04/02 00:29:46;;;;;;;4.75;4.10;;;;;;;;;;5032230;28;20025;-74
2022/04/02 00:32:12;;;;;;;4.07;3.67;;;;;;;;;;5032300;28;20517;-73
2022/04/02 00:34:38;;;;;;;4.25;3.67;;;;;;;;;;5032290;28;20021;-72
2022/04/02 00:37:03;;;;;;;4.35;3.95;;;;;;;;;;5032346;28;20026;-74
2022/04/02 00:39:30;;;;;;;4.80;4.00;;;;;;;;;;5032472;28;20379;-73
2022/04/02 00:41:55;;;;;;;4.25;3.85;;;;;;;;;;5032202;28;20446;-75
2022/04/02 00:44:21;;;;;;;5.22;4.30;;;;;;;;;;5032214;28;20176;-73
2022/04/02 00:46:47;;;;;;;5.10;4.03;;;;;;;;;;5032059;28;20029;-72
2022/04/02 00:49:14;;;;;;;4.18;3.75;;;;;;;;;;5032055;28;20032;-74
2022/04/02 00:51:43;;;;;;;4.55;4.03;;;;;;;;;;5031935;28;20040;-75
2022/04/02 00:54:12;;;;;;;4.72;4.20;;;;;;;;;;5032092;28;20036;-74
2022/04/02 00:56:41;;;;;;;4.00;3.58;;;;;;;;;;5032197;28;20036;-74
2022/04/02 00:59:08;;;;;;;4.20;3.80;;;;;;;;;;5032340;28;20053;-72
2022/04/02 01:01:34;;;;;;;4.78;4.03;;;;;;;;;;5031868;28;20441;-72
2022/04/02 01:04:01;;;;;;;4.03;3.63;;;;;;;;;;5032141;28;20025;-74
2022/04/02 01:06:27;;;;;;;4.30;3.90;;;;;;;;;;5032197;28;20053;-74
2022/04/02 01:08:53;;;;;;;4.45;3.90;;;;;;;;;;5031566;28;20032;-74
2022/04/02 01:11:19;;;;;;;4.05;3.67;;;;;;;;;;5031590;28;20096;-74
2022/04/02 01:13:44;;;;;;;4.00;3.58;;;;;;;;;;5031626;28;20570;-73
2022/04/02 01:16:10;;;;;;;4.40;3.90;;;;;;;;;;5031464;28;20429;-74
2022/04/02 01:18:35;;;;;;;3.70;3.33;;;;;;;;;;5031412;28;20026;-73
2022/04/02 01:21:00;;;;;;;3.47;3.17;;;;;;;;;;5031722;28;20087;-73
2022/04/02 01:23:29;;;;;;;3.80;3.28;;;;;;;;;;5031676;28;20021;-73
2022/04/02 01:25:59;;;;;;;3.83;3.42;;;;;;;;;;5031537;28;20029;-74
2022/04/02 01:28:25;;;;;;;4.18;3.08;;;;;;;;;;5031470;28;20475;-73
2022/04/02 01:30:51;;;;;;;2.97;2.67;;;;;;;;;;5031241;28;20035;-70
2022/04/02 01:33:16;;;;;;;3.53;2.90;;;;;;;;;;5031261;28;20021;-72
2022/04/02 01:35:42;;;;;;;4.40;3.00;;;;;;;;;;5031382;28;20029;-73
2022/04/02 01:38:07;;;;;;;3.20;2.90;;;;;;;;;;5030996;28;20021;-73
2022/04/02 01:40:32;;;;;;;3.17;2.88;;;;;;;;;;5030946;28;20395;-72
2022/04/02 01:42:58;;;;;;;4.43;2.80;;;;;;;;;;5031104;28;20475;-74
2022/04/02 01:45:23;;;;;;;2.78;2.58;;;;;;;;;;5031028;28;20472;-73
2022/04/02 01:47:51;;;;;;;3.15;2.80;;;;;;;;;;5030706;28;20029;-72
2022/04/02 01:50:17;;;;;;;3.40;2.75;;;;;;;;;;5030710;28;20041;-72
2022/04/02 01:52:43;;;;;;;3.15;2.85;;;;;;;;;;5031211;28;20025;-73
2022/04/02 01:55:09;;;;;;;2.78;2.50;;;;;;;;;;5030887;28;20025;-73
2022/04/02 01:57:36;;;;;;;2.92;2.47;;;;;;;;;;5030746;28;20029;-72
2022/04/02 02:00:04;;;;;;;2.60;2.40;;;;;;;;;;5030573;28;20083;-72
2022/04/02 02:02:29;;;;;;;3.17;2.60;;;;;;;;;;5030525;28;20021;-73
2022/04/02 02:04:54;;;;;;;2.63;2.42;;;;;;;;;;5030863;28;20352;-73
2022/04/02 02:07:20;;;;;;;2.67;2.47;;;;;;;;;;5030634;28;20021;-71
2022/04/02 02:09:45;;;;;;;2.28;2.08;;;;;;;;;;5030467;28;20430;-73
2022/04/02 02:12:10;;;;;;;2.80;2.50;;;;;;;;;;5030372;28;20032;-72
2022/04/02 02:14:36;;;;;;;2.88;2.40;;;;;;;;;;5030534;28;20045;-73
2022/04/02 02:17:01;;;;;;;2.50;2.30;;;;;;;;;;5030425;28;20116;-71
2022/04/02 02:19:26;;;;;;;3.75;2.10;;;;;;;;;;5030494;28;20112;-71
2022/04/02 02:21:51;;;;;;;2.25;2.05;;;;;;;;;;5030309;28;20075;-70
2022/04/02 02:24:17;;;;;;;2.50;2.30;;;;;;;;;;5030496;28;20076;-72
2022/04/02 02:26:43;;;;;;;2.70;2.50;;;;;;;;;;5030638;28;20471;-71
2022/04/02 02:29:08;;;;;;;2.40;2.20;;;;;;;;;;5030150;28;20064;-74
2022/04/02 02:31:34;;;;;;;2.50;2.30;;;;;;;;;;5030185;28;20479;-70
2022/04/02 02:36:44;;;;;;;2.55;2.35;;;;;;;;;;5030744;28;20099;-71
2022/04/02 02:39:09;;;;;;;2.30;2.10;;;;;;;;;;5030334;28;20494;-72
2022/04/02 02:41:34;;;;;;;2.20;1.98;;;;;;;;;;5030567;28;20037;-73
2022/04/02 02:44:00;;;;;;;2.33;2.10;;;;;;;;;;5030756;28;20033;-72
2022/04/02 02:46:25;;;;;;;2.30;2.10;;;;;;;;;;5030290;28;20036;-70
2022/04/02 02:48:50;;;;;;;2.35;2.15;;;;;;;;;;5030222;28;20034;-71
2022/04/02 02:51:16;;;;;;;2.33;1.92;;;;;;;;;;5030104;28;20407;-73
2022/04/02 02:53:44;;;;;;;2.25;2.05;;;;;;;;;;5029888;28;20394;-73
2022/04/02 02:56:09;;;;;;;2.35;2.08;;;;;;;;;;5030182;28;20826;-70
2022/04/02 02:58:34;;;;;;;2.50;2.30;;;;;;;;;;5029940;28;20167;-72
2022/04/02 03:01:00;;;;;;;2.53;2.00;;;;;;;;;;5031521;28;20065;-73
2022/04/02 03:03:26;;;;;;;2.42;2.22;;;;;;;;;;5034223;28;20021;-71
2022/04/02 03:05:52;;;;;;;2.20;2.00;;;;;;;;;;5034253;28;20053;-72
2022/04/02 03:08:17;;;;;;;2.30;1.90;;;;;;;;;;5034318;28;20126;-73
2022/04/02 03:10:44;;;;;;;3.08;2.00;;;;;;;;;;5033891;28;20037;-72
2022/04/02 03:13:09;;;;;;;2.55;2.13;;;;;;;;;;5034010;28;20035;-72
2022/04/02 03:15:35;;;;;;;2.30;1.80;;;;;;;;;;5034097;28;20392;-73
2022/04/02 03:18:05;;;;;;;2.10;1.90;;;;;;;;;;5033616;28;20048;-71
2022/04/02 03:20:30;;;;;;;2.33;1.80;;;;;;;;;;5036746;28;20497;-74
2022/04/02 03:22:55;;;;;;;1.90;1.67;;;;;;;;;;5037706;28;20029;-72
2022/04/02 03:25:21;;;;;;;2.00;1.75;;;;;;;;;;5033974;28;20129;-73
2022/04/02 03:27:47;;;;;;;2.33;1.83;;;;;;;;;;5033576;28;20492;-74
2022/04/02 03:30:19;;;;;;;2.00;1.80;;;;;;;;;;5033553;28;20029;-72
2022/04/02 03:32:44;;;;;;;1.88;1.70;;;;;;;;;;5033685;28;20029;-72
2022/04/02 03:35:10;;;;;;;2.05;1.80;;;;;;;;;;5033599;28;20025;-73
2022/04/02 03:37:37;;;;;;;1.85;1.70;;;;;;;;;;5033845;28;20044;-70
2022/04/02 03:40:10;;;;;;;2.72;1.98;;;;;;;;;;5033608;28;20029;-73
2022/04/02 03:42:36;;;;;;;2.00;1.80;;;;;;;;;;5033866;28;20116;-73
2022/04/02 03:45:06;;;;;;;1.90;1.80;;;;;;;;;;5033441;28;20036;-74
2022/04/02 03:47:31;;;;;;;4.20;2.20;;;;;;;;;;5033420;28;20021;-72
2022/04/02 03:49:57;;;;;;;2.15;1.92;;;;;;;;;;5033092;28;20033;-72
2022/04/02 03:52:23;;;;;;;3.47;2.40;;;;;;;;;;5032939;28;20028;-73
2022/04/02 03:54:48;;;;;;;2.50;2.20;;;;;;;;;;5033201;28;20030;-69
2022/04/02 03:57:14;;;;;;;2.22;2.03;;;;;;;;;;5033008;28;20108;-71
2022/04/02 03:59:42;;;;;;;2.97;2.33;;;;;;;;;;5033179;28;20029;-73
2022/04/02 04:02:08;;;;;;;2.45;2.25;;;;;;;;;;5032880;28;20044;-72
2022/04/02 04:04:35;;;;;;;2.03;1.92;;;;;;;;;;5033030;28;20022;-75
2022/04/02 04:07:01;;;;;;;2.85;2.05;;;;;;;;;;5032828;28;20071;-72
2022/04/02 04:09:27;;;;;;;2.78;2.58;;;;;;;;;;5031515;28;20033;-74
2022/04/02 04:11:53;;;;;;;2.20;2.00;;;;;;;;;;5032341;28;20033;-72
2022/04/02 04:14:20;;;;;;;2.25;2.05;;;;;;;;;;5032723;28;20022;-73
2022/04/02 04:16:46;;;;;;;2.42;2.03;;;;;;;;;;5032767;28;20032;-72
2022/04/02 04:19:13;;;;;;;2.40;2.20;;;;;;;;;;5032337;28;20021;-72
2022/04/02 04:21:38;;;;;;;2.25;2.00;;;;;;;;;;5032548;28;20505;-72
2022/04/02 04:24:04;;;;;;;3.17;2.10;;;;;;;;;;5032904;28;20060;-72
2022/04/02 04:26:30;;;;;;;2.17;1.98;;;;;;;;;;5032573;28;20037;-71
2022/04/02 04:28:56;;;;;;;3.88;2.00;;;;;;;;;;5032293;28;20091;-75
2022/04/02 04:31:21;;;;;;;3.60;2.35;;;;;;;;;;5032481;28;20021;-69
2022/04/02 04:33:48;;;;;;;2.08;1.90;;;;;;;;;;5032434;28;20051;-73
2022/04/02 04:36:15;;;;;;;2.45;2.25;;;;;;;;;;5032510;28;20021;-71
2022/04/02 04:38:41;;;;;;;3.88;2.28;;;;;;;;;;5032323;28;20033;-74
2022/04/02 04:41:06;;;;;;;2.55;2.15;;;;;;;;;;5032568;28;20135;-74
2022/04/02 04:43:32;;;;;;;2.83;1.98;;;;;;;;;;5032299;28;20104;-71
2022/04/02 04:45:58;;;;;;;3.28;2.45;;;;;;;;;;5032361;28;20025;-70
2022/04/02 04:48:23;;;;;;;3.58;2.15;;;;;;;;;;5031879;28;20053;-73
2022/04/02 04:50:49;;;;;;;2.58;1.98;;;;;;;;;;5032077;28;20493;-71
2022/04/02 04:53:14;;;;;;;2.63;2.20;;;;;;;;;;5032238;28;20033;-73
2022/04/02 04:55:39;;;;;;;2.72;1.98;;;;;;;;;;5032533;28;20116;-73
2022/04/02 04:58:05;;;;;;;2.88;2.05;;;;;;;;;;5032610;28;20713;-73
2022/04/02 05:00:31;;;;;;;2.60;2.30;;;;;;;;;;5031942;28;20025;-71
2022/04/02 05:02:57;;;;;;;4.95;2.28;;;;;;;;;;5031735;28;20021;-73
2022/04/02 05:05:23;;;;;;;2.53;2.20;;;;;;;;;;5031794;28;20040;-73
2022/04/02 05:07:49;;;;;;;2.60;2.20;;;;;;;;;;5031934;28;20082;-72
2022/04/02 05:10:15;;;;;;;3.70;2.85;;;;;;;;;;5031583;28;20550;-73
2022/04/02 05:12:40;;;;;;;4.18;2.55;;;;;;;;;;5031768;28;20033;-71
2022/04/02 05:15:09;;;;;;;3.10;2.60;;;;;;;;;;5031778;28;20028;-75
2022/04/02 05:17:37;;;;;;;2.75;2.38;;;;;;;;;;5031469;28;20044;-74
2022/04/02 05:20:04;;;;;;;3.83;2.53;;;;;;;;;;5031362;28;20078;-72
2022/04/02 05:22:29;;;;;;;3.78;2.30;;;;;;;;;;5031229;28;20495;-70
2022/04/02 05:24:55;;;;;;;5.47;4.18;;;;;;;;;;5030894;28;20112;-73
2022/04/02 05:27:20;;;;;;;5.97;4.75;;;;;;;;;;5031542;28;20029;-73
2022/04/02 05:29:46;;;;;;;23.15;14.18;;;;;;;;;;5031243;28;20480;-69
2022/04/02 05:32:11;;;;;;;5.78;4.05;;;;;;;;;;5031466;28;20114;-73
2022/04/02 05:34:37;;;;;;;4.03;3.60;;;;;;;;;;5031383;28;20029;-71
2022/04/02 05:37:03;;;;;;;3.67;3.25;;;;;;;;;;5031381;28;20025;-72
2022/04/02 05:39:29;;;;;;;3.08;2.47;;;;;;;;;;5030787;28;20022;-74
2022/04/02 05:41:54;;;;;;;3.85;2.75;;;;;;;;;;5030839;28;20503;-71
2022/04/02 05:44:19;;;;;;;3.10;2.45;;;;;;;;;;5030922;28;20395;-72
2022/04/02 05:46:45;;;;;;;3.30;2.50;;;;;;;;;;5028983;28;20017;-71
2022/04/02 05:49:11;;;;;;;3.40;2.90;;;;;;;;;;5026426;28;20040;-71
2022/04/02 05:51:37;;;;;;;5.75;3.00;;;;;;;;;;5027734;28;20049;-72
2022/04/02 05:54:03;;;;;;;3.38;2.90;;;;;;;;;;5027322;28;20059;-73
2022/04/02 05:56:28;;;;;;;3.08;2.70;;;;;;;;;;5027223;28;20029;-72
2022/04/02 05:58:54;;;;;;;4.10;3.15;;;;;;;;;;5027711;28;20026;-72
2022/04/02 06:01:20;;;;;;;7.55;5.80;;;;;;;;;;5026783;28;20033;-72
2022/04/02 06:03:47;;;;;;;3.42;3.13;;;;;;;;;;5026951;28;20029;-71
2022/04/02 06:06:12;;;;;;;6.28;3.67;;;;;;;;;;5027882;28;20457;-72
2022/04/02 06:08:38;;;;;;;3.22;2.65;;;;;;;;;;5026881;28;20021;-72
2022/04/02 06:11:06;;;;;;;3.97;2.53;;;;;;;;;;5027255;28;20072;-73
2022/04/02 06:13:31;;;;;;;7.03;2.60;;;;;;;;;;5027408;28;20052;-71
2022/04/02 06:15:57;;;;;;;3.70;2.90;;;;;;;;;;5027052;28;20068;-73
2022/04/02 06:18:22;;;;;;;4.00;2.80;;;;;;;;;;5021908;28;20414;-73
2022/04/02 06:20:48;;;;;;;3.35;2.88;;;;;;;;;;5026842;28;20091;-72
2022/04/02 06:23:14;;;;;;;2.78;2.40;;;;;;;;;;5026791;28;20028;-74
2022/04/02 06:25:39;;;;;;;4.20;2.80;;;;;;;;;;5027543;28;20029;-70
2022/04/02 06:28:06;;;;;;;3.20;2.70;;;;;;;;;;5026695;28;20157;-69
2022/04/02 06:30:32;;;;;;;5.10;3.00;;;;;;;;;;5025373;28;20044;-74
2022/04/02 06:33:00;;;;;;;3.17;2.60;;;;;;;;;;5026785;28;20021;-73
2022/04/02 06:35:26;;;;;;;3.40;2.85;;;;;;;;;;5026347;28;20104;-70
2022/04/02 06:37:53;;;;;;;4.15;3.30;;;;;;;;;;5026981;28;20037;-73
2022/04/02 06:40:19;;;;;;;3.35;2.80;;;;;;;;;;5026444;28;20025;-72
2022/04/02 06:42:44;;;;;;;4.07;3.38;;;;;;;;;;5026340;28;20029;-72
2022/04/02 06:45:10;;;;;;;5.68;3.80;;;;;;;;;;5026430;28;20036;-71
2022/04/02 06:47:36;;;;;;;4.18;3.25;;;;;;;;;;5026327;28;20116;-72
2022/04/02 06:50:06;;;;;;;2.88;2.63;;;;;;;;;;5026507;28;20104;-73
2022/04/02 06:52:32;;;;;;;4.53;3.45;;;;;;;;;;5026971;28;20475;-72
2022/04/02 06:54:58;;;;;;;4.10;3.03;;;;;;;;;;5025675;28;20064;-72
2022/04/02 06:57:23;;;;;;;3.50;2.90;;;;;;;;;;5026488;28;20022;-73
2022/04/02 06:59:49;;;;;;;3.15;2.67;;;;;;;;;;5025902;28;20340;-69
2022/04/02 07:02:20;;;;;;;3.33;2.92;;;;;;;;;;5027794;28;20033;-73
2022/04/02 07:04:46;;;;;;;4.07;2.60;;;;;;;;;;5028535;28;20025;-71
2022/04/02 07:07:11;;;;;;;5.25;2.83;;;;;;;;;;5029979;28;20467;-72
2022/04/02 07:09:36;;;;;;;3.97;2.83;;;;;;;;;;5029611;28;20500;-73
2022/04/02 07:12:02;;;;;;;4.43;2.63;;;;;;;;;;5029310;28;20032;-72
2022/04/02 07:14:28;;;;;;;5.20;3.78;;;;;;;;;;5029491;28;20033;-72
2022/04/02 07:16:53;;;;;;;3.70;3.10;;;;;;;;;;5029763;28;20515;-71
2022/04/02 07:19:23;;;;;;;4.53;2.97;;;;;;;;;;5026776;28;20030;-72
2022/04/02 07:21:53;;;;;;;4.07;3.00;;;;;;;;;;5025913;28;20040;-71
2022/04/02 07:24:20;;;;;;;5.00;3.85;;;;;;;;;;5028445;28;20043;-73
2022/04/02 07:26:46;;;;;;;4.97;3.25;;;;;;;;;;5029524;28;20021;-73
2022/04/02 07:29:13;;;;;;;4.32;3.38;;;;;;;;;;5030233;28;20356;-72
2022/04/02 07:31:39;;;;;;;5.97;3.35;;;;;;;;;;5029825;28;20446;-75
2022/04/02 07:34:04;;;;;;;4.03;3.13;;;;;;;;;;5029815;28;20049;-75
2022/04/02 07:36:38;;;;;;;3.67;3.38;;;;;;;;;;5029585;28;20029;-76
2022/04/02 07:39:11;;;;;;;17.77;9.35;;;;;;;;;;5027459;28;20036;-75
2022/04/02 07:41:43;;;;;;;26.00;11.02;;;;;;;;;;5029442;28;20041;-76
2022/04/02 07:44:28;;;;;;;99.32;35.13;;;;;;;;;;5027652;28;20052;-77
2022/04/02 07:46:56;;;;;;;110.57;38.13;;;;;;;;;;5028114;28;20267;-75
2022/04/02 07:49:26;;;;;;;31.00;13.18;;;;;;;;;;5022875;28;20037;-76
2022/04/02 07:51:53;;;;;;;66.18;32.05;;;;;;;;;;5023044;28;20029;-76
2022/04/02 07:54:22;;;;;;;51.50;27.98;;;;;;;;;;5027821;28;20017;-77
2022/04/02 07:56:50;;;;;;;32.60;16.58;;;;;;;;;;5033603;28;20487;-74
2022/04/02 07:59:27;;;;;;;7.97;5.10;;;;;;;;;;5032192;28;20029;-75
2022/04/02 08:01:53;;;;;;;10.15;6.72;;;;;;;;;;5033504;28;20034;-72
2022/04/02 08:04:21;;;;;;;5.43;4.22;;;;;;;;;;5034542;28;20411;-74
2022/04/02 08:06:48;;;;;;;19.38;13.30;;;;;;;;;;5035616;28;20060;-74
2022/04/02 08:09:14;;;;;;;8.88;6.03;;;;;;;;;;5034721;28;20499;-74
2022/04/02 08:11:41;;;;;;;4.35;3.95;;;;;;;;;;5033614;28;20099;-76
2022/04/02 08:14:08;;;;;;;4.38;3.40;;;;;;;;;;5032682;28;20025;-76
2022/04/02 08:16:35;;;;;;;4.88;3.83;;;;;;;;;;5032398;28;20026;-77
2022/04/02 08:19:02;;;;;;;7.40;3.53;;;;;;;;;;5032094;28;20482;-76
2022/04/02 08:21:27;;;;;;;4.10;3.70;;;;;;;;;;5032372;28;20039;-77
2022/04/02 08:23:52;;;;;;;4.10;3.28;;;;;;;;;;5032495;28;20333;-77
2022/04/02 08:26:20;;;;;;;3.78;3.20;;;;;;;;;;5032874;28;20024;-77
2022/04/02 08:29:13;;;;;;;4.15;3.30;;;;;;;;;;5023355;28;20112;-77
2022/04/02 08:31:54;;;;;;;7.13;3.42;;;;;;;;;;5032406;28;20032;-76
2022/04/02 08:34:25;;;;;;;2.92;2.72;;;;;;;;;;5032727;28;20079;-76
2022/04/02 08:37:38;;;;;;;3.95;2.75;;;;;;;;;;5032257;28;20084;-78
2022/04/02 08:40:35;;;;;;;4.77;3.27;;;;;;;;;;4999424;28;20581;-75
2022/04/02 08:43:19;;;;;;;6.25;2.97;;;;;;;;;;5026590;28;20049;-76
2022/04/02 08:45:58;;;;;;;5.65;3.83;;;;;;;;;;5033941;28;20028;-78
2022/04/02 08:48:23;;;;;;;6.15;3.80;;;;;;;;;;5034599;28;20467;-77
2022/04/02 08:50:54;;;;;;;3.92;3.53;;;;;;;;;;5030411;28;20121;-79
2022/04/02 08:53:38;;;;;;;4.55;3.67;;;;;;;;;;5031979;28;20206;-75
2022/04/02 08:56:06;;;;;;;16.60;10.77;;;;;;;;;;5032434;28;20033;-78
2022/04/02 08:58:40;;;;;;;12.43;7.82;;;;;;;;;;5031656;28;20030;-77
2022/04/02 09:01:09;;;;;;;14.38;8.43;;;;;;;;;;5032055;28;20029;-75
2022/04/02 09:03:57;;;;;;;6.32;4.55;;;;;;;;;;5032086;28;20364;-76
2022/04/02 09:06:32;;;;;;;10.13;6.57;;;;;;;;;;5032086;28;20021;-77
2022/04/02 09:09:07;;;;;;;33.03;18.67;;;;;;;;;;5031618;28;20029;-73
2022/04/02 09:11:57;;;;;;;6.63;5.15;;;;;;;;;;5032045;28;20483;-77
2022/04/02 09:14:28;;;;;;;17.65;13.15;;;;;;;;;;5027908;28;20026;-75
2022/04/02 09:16:54;;;;;;;6.03;3.50;;;;;;;;;;5010795;28;20480;-77
2022/04/02 09:19:28;;;;;;;4.15;3.05;;;;;;;;;;5011700;28;20037;-76
2022/04/02 09:22:12;;;;;;;3.10;2.42;;;;;;;;;;5011923;28;20037;-71
2022/04/02 09:24:59;;;;;;;5.18;3.67;;;;;;;;;;5012329;28;20022;-74
2022/04/02 09:27:33;;;;;;;7.85;4.15;;;;;;;;;;5011659;28;20084;-70
2022/04/02 09:30:19;;;;;;;11.15;5.97;;;;;;;;;;5020439;28;20065;-73
2022/04/02 09:33:02;;;;;;;5.03;3.90;;;;;;;;;;5031127;28;20040;-71
2022/04/02 09:35:30;;;;;;;;;;;;;;;;;;5031181;28;20025;-74
2022/04/02 09:38:01;;;;;;;9.85;4.50;;;;;;;;;;5030571;28;20003;-73
2022/04/02 09:40:44;;;;;;;5.22;3.20;;;;;;;;;;5029631;28;20048;-73
2022/04/02 09:43:19;;;;;;;3.45;3.00;;;;;;;;;;5030761;28;20363;-70
2022/04/02 09:46:04;;;;;;;23.20;4.90;;;;;;;;;;5031222;28;20017;-74
2022/04/02 09:48:47;;;;;;;4.07;3.20;;;;;;;;;;5031100;28;20496;-73
2022/04/02 09:51:16;;;;;;;3.95;2.80;;;;;;;;;;5031070;28;20036;-74
2022/04/02 09:53:55;;;;;;;5.47;3.38;;;;;;;;;;5030241;28;20113;-75
2022/04/02 09:56:27;;;;;;;5.85;4.00;;;;;;;;;;5029529;28;20251;-73
2022/04/02 09:59:25;;;;;;;5.20;3.80;;;;;;;;;;5030620;28;20048;-74
2022/04/02 10:02:04;;;;;;;5.18;3.20;;;;;;;;;;5031000;28;20033;-75
2022/04/02 10:04:53;;;;;;;3.80;2.85;;;;;;;;;;5030902;28;20537;-74
2022/04/02 10:08:02;;;;;;;18.88;9.88;;;;;;;;;;5030791;28;20026;-75
2022/04/02 10:10:29;;;;;;;5.50;3.45;;;;;;;;;;5031005;28;20037;-77
2022/04/02 10:12:55;;;;;;;5.15;3.25;;;;;;;;;;5032024;28;20029;-76
2022/04/02 10:15:22;;;;;;;4.68;3.42;;;;;;;;;;5030475;28;20677;-75
2022/04/02 10:17:52;;;;;;;5.30;3.85;;;;;;;;;;5032128;28;20030;-75
2022/04/02 10:20:28;;;;;;;7.45;4.55;;;;;;;;;;5030765;28;20022;-75
2022/04/02 10:23:19;;;;;;;8.25;5.00;;;;;;;;;;5031622;28;20061;-75
2022/04/02 10:26:16;;;;;;;6.63;3.85;;;;;;;;;;5030948;28;20083;-76
2022/04/02 10:29:12;;;;;;;5.50;3.40;;;;;;;;;;5030467;28;20032;-76
2022/04/02 10:31:46;;;;;;;5.05;3.75;;;;;;;;;;5029559;28;20098;-76
2022/04/02 10:34:27;;;;;;;5.40;4.35;;;;;;;;;;5030329;28;20155;-76
2022/04/02 10:37:04;;;;;;;4.07;3.20;;;;;;;;;;5030264;28;20022;-73
2022/04/02 10:39:31;;;;;;;4.72;3.65;;;;;;;;;;5030119;28;20028;-77
2022/04/02 10:42:04;;;;;;;3.70;3.17;;;;;;;;;;5030148;28;20486;-72
2022/04/02 10:44:57;;;;;;;5.03;3.78;;;;;;;;;;5029137;28;20025;-76
2022/04/02 10:47:27;;;;;;;4.55;3.28;;;;;;;;;;5029875;28;20013;-72
2022/04/02 10:50:00;;;;;;;5.22;3.70;;;;;;;;;;5030261;28;20041;-74
2022/04/02 10:52:26;;;;;;;;;;;;;;;;;;5030639;28;20116;-73
2022/04/02 10:54:52;;;;;;;5.32;3.58;;;;;;;;;;5030141;28;20351;-73
2022/04/02 10:57:18;;;;;;;4.53;3.00;;;;;;;;;;5030077;28;20064;-73
2022/04/02 10:59:47;;;;;;;3.80;3.10;;;;;;;;;;5030410;28;20030;-75
2022/04/02 11:02:46;;;;;;;3.30;3.00;;;;;;;;;;5030131;28;20374;-73
2022/04/02 11:05:14;;;;;;;4.60;3.47;;;;;;;;;;5027369;28;20399;-75
2022/04/02 11:07:49;;;;;;;3.53;3.20;;;;;;;;;;5029947;28;20487;-73
2022/04/02 11:10:20;;;;;;;3.90;3.40;;;;;;;;;;5029724;28;20116;-74
2022/04/02 11:12:46;;;;;;;3.65;2.90;;;;;;;;;;5029840;28;20095;-74
2022/04/02 11:15:20;;;;;;;4.20;2.90;;;;;;;;;;5029808;28;20029;-73
2022/04/02 11:17:54;;;;;;;4.20;3.78;;;;;;;;;;5029768;28;20426;-71
2022/04/02 11:20:27;;;;;;;4.25;3.83;;;;;;;;;;5029456;28;20052;-74
2022/04/02 11:22:54;;;;;;;4.50;3.22;;;;;;;;;;5032927;28;20025;-74
2022/04/02 11:25:31;;;;;;;5.03;3.58;;;;;;;;;;5033621;28;20021;-74
2022/04/02 11:28:20;;;;;;;5.05;3.40;;;;;;;;;;5033802;28;20159;-73
2022/04/02 11:31:11;;;;;;;4.47;3.03;;;;;;;;;;5026909;28;20040;-74
2022/04/02 11:33:51;;;;;;;4.95;3.13;;;;;;;;;;5033736;28;20037;-73
2022/04/02 11:36:21;;;;;;;4.25;3.28;;;;;;;;;;5033659;28;20061;-74
2022/04/02 11:38:56;;;;;;;4.90;3.30;;;;;;;;;;5031811;28;20033;-74
2022/04/02 11:41:25;;;;;;;3.70;3.05;;;;;;;;;;5033294;28;20029;-72
2022/04/02 11:44:02;;;;;;;5.57;3.90;;;;;;;;;;5033709;28;20037;-72
2022/04/02 11:46:28;;;;;;;4.90;3.30;;;;;;;;;;5032961;28;20505;-76
2022/04/02 11:48:56;;;;;;;6.95;5.70;;;;;;;;;;5033289;28;20037;-75
2022/04/02 11:51:24;;;;;;;3.97;3.58;;;;;;;;;;5033553;28;20041;-71
2022/04/02 11:53:51;;;;;;;4.10;3.70;;;;;;;;;;5033210;28;20025;-72
2022/04/02 11:56:43;;;;;;;4.40;3.75;;;;;;;;;;5033370;28;20126;-73
2022/04/02 11:59:09;;;;;;;4.72;2.97;;;;;;;;;;5032968;28;20100;-74
2022/04/02 12:01:49;;;;;;;3.47;3.15;;;;;;;;;;5033136;28;20288;-74
2022/04/02 12:04:22;;;;;;;4.03;3.40;;;;;;;;;;5032998;28;20029;-75
2022/04/02 12:06:49;;;;;;;4.18;3.00;;;;;;;;;;5033229;28;20392;-76
2022/04/02 12:09:19;;;;;;;4.97;3.25;;;;;;;;;;5032702;28;20041;-74
2022/04/02 12:11:53;;;;;;;3.15;2.85;;;;;;;;;;5032965;28;20415;-75
2022/04/02 12:14:38;;;;;;;4.80;3.20;;;;;;;;;;5033262;28;20264;-74
2022/04/02 12:17:15;;;;;;;5.03;3.47;;;;;;;;;;5033162;28;20108;-73
2022/04/02 12:19:46;;;;;;;5.18;3.50;;;;;;;;;;5032483;28;20029;-71
2022/04/02 12:22:31;;;;;;;8.52;5.90;;;;;;;;;;5032662;28;20032;-72
2022/04/02 12:24:58;;;;;;;5.82;3.70;;;;;;;;;;5032531;28;20021;-72
2022/04/02 12:27:27;;;;;;;4.45;3.40;;;;;;;;;;5033058;28;20021;-73
2022/04/02 12:29:55;;;;;;;5.57;3.42;;;;;;;;;;5032451;28;20030;-74
2022/04/02 12:32:34;;;;;;;3.92;3.10;;;;;;;;;;5032865;28;20033;-73
2022/04/02 12:35:06;;;;;;;8.95;3.67;;;;;;;;;;5033259;28;20108;-75
2022/04/02 12:37:42;;;;;;;4.20;3.80;;;;;;;;;;5033008;28;20036;-74
2022/04/02 12:40:19;;;;;;;5.07;4.07;;;;;;;;;;5032866;28;20028;-74
2022/04/02 12:42:46;;;;;;;5.88;3.92;;;;;;;;;;5032093;28;20051;-73
2022/04/02 12:45:15;;;;;;;4.90;3.97;;;;;;;;;;5027705;28;20022;-74
2022/04/02 12:47:54;;;;;;;6.13;4.28;;;;;;;;;;5020597;28;20535;-73
2022/04/02 12:50:19;;;;;;;5.50;4.03;;;;;;;;;;5030113;28;20025;-73
2022/04/02 12:52:47;;;;;;;5.68;3.80;;;;;;;;;;5032557;28;20079;-73
2022/04/02 12:55:17;;;;;;;6.28;4.10;;;;;;;;;;5031966;28;20487;-73
2022/04/02 12:58:01;;;;;;;5.75;4.00;;;;;;;;;;5032056;28;20025;-73
2022/04/02 13:00:31;;;;;;;6.13;4.20;;;;;;;;;;5031883;28;20036;-74
2022/04/02 13:03:01;;;;;;;5.75;3.60;;;;;;;;;;5029539;28;20131;-75
2022/04/02 13:05:44;;;;;;;6.68;3.40;;;;;;;;;;5022761;28;20486;-73
2022/04/02 13:08:21;;;;;;;9.23;4.45;;;;;;;;;;5024827;28;20025;-73
2022/04/02 13:10:47;;;;;;;7.10;4.20;;;;;;;;;;5022109;28;20386;-73
2022/04/02 13:13:14;;;;;;;7.28;4.40;;;;;;;;;;5020584;28;20022;-73
2022/04/02 13:15:49;;;;;;;8.27;3.65;;;;;;;;;;5014758;28;20113;-73
2022/04/02 13:21:07;;;;;;;7.07;4.05;;;;;;;;;;5011774;28;20087;-74
2022/04/02 13:23:52;;;;;;;4.55;3.22;;;;;;;;;;5011740;28;20527;-73
2022/04/02 13:26:26;;;;;;;7.00;3.58;;;;;;;;;;5020737;28;20029;-73
2022/04/02 13:29:08;;;;;;;6.53;3.47;;;;;;;;;;5031610;28;20494;-73
2022/04/02 13:31:46;;;;;;;5.03;3.00;;;;;;;;;;5031195;28;20033;-76
2022/04/02 13:34:18;;;;;;;4.72;3.00;;;;;;;;;;5031540;28;20104;-72
2022/04/02 13:37:14;;;;;;;3.47;2.80;;;;;;;;;;5031155;28;20475;-75
2022/04/02 13:39:42;;;;;;;4.07;2.92;;;;;;;;;;5030258;28;20033;-72
2022/04/02 13:42:10;;;;;;;4.25;3.22;;;;;;;;;;5031545;28;20102;-75
2022/04/02 13:44:44;;;;;;;4.70;3.30;;;;;;;;;;5033435;28;20036;-75
2022/04/02 13:47:11;;;;;;;4.05;3.28;;;;;;;;;;5024017;28;20391;-74
2022/04/02 13:49:54;;;;;;;25.35;11.65;;;;;;;;;;5030235;28;20029;-76
2022/04/02 13:52:22;;;;;;;18.40;8.63;;;;;;;;;;5026847;28;20168;-74
2022/04/02 13:55:07;;;;;;;15.25;8.15;;;;;;;;;;5019635;28;20184;-74
2022/04/02 13:57:35;;;;;;;9.35;5.90;;;;;;;;;;5015918;28;20364;-73
2022/04/02 14:00:09;;;;;;;6.22;4.13;;;;;;;;;;5030615;28;20037;-74
2022/04/02 14:02:36;;;;;;;6.20;3.60;;;;;;;;;;5029920;28;20487;-72
2022/04/02 14:05:21;;;;;;;4.65;3.90;;;;;;;;;;5030154;28;20037;-73
2022/04/02 14:07:59;;;;;;;4.85;4.07;;;;;;;;;;5030492;28;20025;-74
2022/04/02 14:10:32;;;;;;;5.28;4.55;;;;;;;;;;5030237;28;20028;-74
2022/04/02 14:13:00;;;;;;;6.45;4.00;;;;;;;;;;5030389;28;20029;-73
2022/04/02 14:15:27;;;;;;;5.15;3.53;;;;;;;;;;5030237;28;20037;-73
2022/04/02 14:17:57;;;;;;;13.55;5.97;;;;;;;;;;5030480;28;20021;-74
2022/04/02 14:20:23;;;;;;;7.68;4.22;;;;;;;;;;5030352;28;20044;-74
2022/04/02 14:22:56;;;;;;;5.30;3.47;;;;;;;;;;5030444;28;20022;-74
2022/04/02 14:25:48;;;;;;;5.03;3.15;;;;;;;;;;5030456;28;20028;-72
2022/04/02 14:28:32;;;;;;;6.18;3.17;;;;;;;;;;5026973;28;20475;-75
2022/04/02 14:30:57;;;;;;;6.38;3.55;;;;;;;;;;5027844;28;20070;-73
2022/04/02 14:33:47;;;;;;;3.53;3.22;;;;;;;;;;5020574;28;20025;-76
2022/04/02 14:36:18;;;;;;;6.57;4.32;;;;;;;;;;5030075;28;20029;-73
2022/04/02 14:39:08;;;;;;;3.53;2.70;;;;;;;;;;5030144;28;20029;-73
2022/04/02 14:42:02;;;;;;;7.40;4.55;;;;;;;;;;5048081;22;20061;-78
2022/04/02 14:45:06;;;;;;;5.28;3.35;;;;;;;;;;5011243;28;20030;-76
2022/04/02 14:48:07;;;;;;;3.30;3.00;;;;;;;;;;5000641;28;20096;-77
2022/04/02 14:51:09;;;;;;;3.65;2.85;;;;;;;;;;5008798;28;20037;-74
2022/04/02 14:53:55;;;;;;;5.68;3.05;;;;;;;;;;4991479;28;20546;-77
2022/04/02 14:56:25;;;;;;;2.88;2.63;;;;;;;;;;4990961;28;20030;-76
2022/04/02 14:59:29;;;;;;;3.50;2.80;;;;;;;;;;4990751;28;20456;-78
2022/04/02 15:02:04;;;;;;;4.03;3.63;;;;;;;;;;4990679;28;20034;-74
2022/04/02 15:04:45;;;;;;;3.45;2.72;;;;;;;;;;4990660;28;20548;-77
2022/04/02 15:07:30;;;;;;;4.78;3.00;;;;;;;;;;4990597;28;20070;-75
2022/04/02 15:10:08;;;;;;;4.65;2.97;;;;;;;;;;4989568;28;20032;-76